sensor_id;sensor_type;location;lat;lon;timestamp;P1;durP1;ratioP1;P2;durP2;ratioP2
66175;SDS011;52977;44.816;20.538;2023-11-21T00:02:21;48.55;;;22.88;;
66175;SDS011;52977;44.816;20.538;2023-11-21T00:04:48;44.35;;;21.33;;
66175;SDS011;52977;44.816;20.538;2023-11-21T00:07:14;45.78;;;19.88;;
66175;SDS011;52977;44.816;20.538;2023-11-21T00:09:40;44.83;;;20.13;;
66175;SDS011;52977;44.816;20.538;2023-11-21T00:12:08;40.50;;;17.60;;
66175;SDS011;52977;44.816;20.538;2023-11-21T00:14:37;32.45;;;15.95;;
66175;SDS011;52977;44.816;20.538;2023-11-21T00:17:04;29.40;;;13.23;;
66175;SDS011;52977;44.816;20.538;2023-11-21T00:19:31;25.33;;;12.43;;
66175;SDS011;52977;44.816;20.538;2023-11-21T00:21:59;24.92;;;11.93;;
66175;SDS011;52977;44.816;20.538;2023-11-21T00:24:25;21.45;;;9.40;;
66175;SDS011;52977;44.816;20.538;2023-11-21T00:26:51;20.70;;;8.93;;
66175;SDS011;52977;44.816;20.538;2023-11-21T00:29:18;16.65;;;9.18;;
66175;SDS011;52977;44.816;20.538;2023-11-21T00:31:44;18.30;;;7.93;;
66175;SDS011;52977;44.816;20.538;2023-11-21T00:34:11;20.73;;;8.73;;
66175;SDS011;52977;44.816;20.538;2023-11-21T00:36:38;22.48;;;9.32;;
66175;SDS011;52977;44.816;20.538;2023-11-21T00:39:04;19.65;;;7.38;;
66175;SDS011;52977;44.816;20.538;2023-11-21T00:41:31;26.23;;;11.10;;
66175;SDS011;52977;44.816;20.538;2023-11-21T00:43:58;27.10;;;13.73;;
66175;SDS011;52977;44.816;20.538;2023-11-21T00:46:25;27.85;;;11.85;;
66175;SDS011;52977;44.816;20.538;2023-11-21T00:48:54;25.77;;;10.73;;
66175;SDS011;52977;44.816;20.538;2023-11-21T00:51:21;20.10;;;10.93;;
66175;SDS011;52977;44.816;20.538;2023-11-21T00:53:47;22.20;;;10.20;;
66175;SDS011;52977;44.816;20.538;2023-11-21T00:56:14;19.77;;;8.85;;
66175;SDS011;52977;44.816;20.538;2023-11-21T00:58:41;15.25;;;7.60;;
66175;SDS011;52977;44.816;20.538;2023-11-21T01:01:15;16.02;;;5.95;;
66175;SDS011;52977;44.816;20.538;2023-11-21T01:03:41;11.23;;;5.35;;
66175;SDS011;52977;44.816;20.538;2023-11-21T01:06:08;11.18;;;5.43;;
66175;SDS011;52977;44.816;20.538;2023-11-21T01:08:34;12.02;;;5.95;;
66175;SDS011;52977;44.816;20.538;2023-11-21T01:11:02;11.98;;;5.97;;
66175;SDS011;52977;44.816;20.538;2023-11-21T01:13:28;10.55;;;5.15;;
66175;SDS011;52977;44.816;20.538;2023-11-21T01:15:55;9.95;;;5.60;;
66175;SDS011;52977;44.816;20.538;2023-11-21T01:18:21;16.02;;;5.82;;
66175;SDS011;52977;44.816;20.538;2023-11-21T01:20:48;24.73;;;5.70;;
66175;SDS011;52977;44.816;20.538;2023-11-21T01:23:14;13.15;;;6.25;;
66175;SDS011;52977;44.816;20.538;2023-11-21T01:25:40;15.80;;;6.13;;
66175;SDS011;52977;44.816;20.538;2023-11-21T01:28:08;14.90;;;6.65;;
66175;SDS011;52977;44.816;20.538;2023-11-21T01:30:35;12.35;;;5.68;;
66175;SDS011;52977;44.816;20.538;2023-11-21T01:33:01;14.52;;;6.80;;
66175;SDS011;52977;44.816;20.538;2023-11-21T01:35:30;12.93;;;5.85;;
66175;SDS011;52977;44.816;20.538;2023-11-21T01:37:55;12.27;;;6.00;;
66175;SDS011;52977;44.816;20.538;2023-11-21T01:40:21;12.05;;;5.47;;
66175;SDS011;52977;44.816;20.538;2023-11-21T01:42:47;12.70;;;6.07;;
66175;SDS011;52977;44.816;20.538;2023-11-21T01:45:13;12.32;;;5.72;;
66175;SDS011;52977;44.816;20.538;2023-11-21T01:47:41;13.52;;;5.70;;
66175;SDS011;52977;44.816;20.538;2023-11-21T01:50:08;11.07;;;5.50;;
66175;SDS011;52977;44.816;20.538;2023-11-21T01:52:38;10.13;;;5.10;;
66175;SDS011;52977;44.816;20.538;2023-11-21T01:55:06;9.50;;;4.80;;
66175;SDS011;52977;44.816;20.538;2023-11-21T01:57:35;11.32;;;5.20;;
66175;SDS011;52977;44.816;20.538;2023-11-21T02:00:04;14.60;;;5.35;;
66175;SDS011;52977;44.816;20.538;2023-11-21T02:02:42;13.10;;;5.65;;
66175;SDS011;52977;44.816;20.538;2023-11-21T02:05:10;20.63;;;8.27;;
66175;SDS011;52977;44.816;20.538;2023-11-21T02:07:38;24.33;;;11.07;;
66175;SDS011;52977;44.816;20.538;2023-11-21T02:10:06;26.17;;;13.25;;
66175;SDS011;52977;44.816;20.538;2023-11-21T02:12:33;30.52;;;14.80;;
66175;SDS011;52977;44.816;20.538;2023-11-21T02:15:04;30.15;;;13.90;;
66175;SDS011;52977;44.816;20.538;2023-11-21T02:17:35;28.90;;;13.70;;
66175;SDS011;52977;44.816;20.538;2023-11-21T02:20:02;24.88;;;13.10;;
66175;SDS011;52977;44.816;20.538;2023-11-21T02:22:30;27.13;;;14.07;;
66175;SDS011;52977;44.816;20.538;2023-11-21T02:25:01;25.05;;;12.90;;
66175;SDS011;52977;44.816;20.538;2023-11-21T02:27:28;29.27;;;13.02;;
66175;SDS011;52977;44.816;20.538;2023-11-21T02:29:54;27.17;;;13.57;;
66175;SDS011;52977;44.816;20.538;2023-11-21T02:32:20;26.67;;;13.18;;
66175;SDS011;52977;44.816;20.538;2023-11-21T02:34:48;25.25;;;13.27;;
66175;SDS011;52977;44.816;20.538;2023-11-21T02:37:15;32.50;;;13.68;;
66175;SDS011;52977;44.816;20.538;2023-11-21T02:39:41;23.63;;;12.57;;
66175;SDS011;52977;44.816;20.538;2023-11-21T02:42:08;24.98;;;12.95;;
66175;SDS011;52977;44.816;20.538;2023-11-21T02:44:34;22.65;;;12.43;;
66175;SDS011;52977;44.816;20.538;2023-11-21T02:47:00;27.85;;;13.00;;
66175;SDS011;52977;44.816;20.538;2023-11-21T02:49:27;30.02;;;14.02;;
66175;SDS011;52977;44.816;20.538;2023-11-21T02:51:54;29.48;;;14.88;;
66175;SDS011;52977;44.816;20.538;2023-11-21T02:54:20;28.75;;;14.77;;
66175;SDS011;52977;44.816;20.538;2023-11-21T02:56:48;32.17;;;16.23;;
66175;SDS011;52977;44.816;20.538;2023-11-21T02:59:15;34.47;;;16.23;;
66175;SDS011;52977;44.816;20.538;2023-11-21T03:01:41;31.70;;;15.98;;
66175;SDS011;52977;44.816;20.538;2023-11-21T03:04:08;28.67;;;14.68;;
66175;SDS011;52977;44.816;20.538;2023-11-21T03:06:34;28.23;;;15.30;;
66175;SDS011;52977;44.816;20.538;2023-11-21T03:09:00;26.67;;;13.95;;
66175;SDS011;52977;44.816;20.538;2023-11-21T03:11:27;29.75;;;13.98;;
66175;SDS011;52977;44.816;20.538;2023-11-21T03:13:53;27.85;;;13.07;;
66175;SDS011;52977;44.816;20.538;2023-11-21T03:16:19;24.73;;;13.18;;
66175;SDS011;52977;44.816;20.538;2023-11-21T03:18:46;25.90;;;12.75;;
66175;SDS011;52977;44.816;20.538;2023-11-21T03:21:12;23.40;;;12.20;;
66175;SDS011;52977;44.816;20.538;2023-11-21T03:23:39;24.65;;;12.35;;
66175;SDS011;52977;44.816;20.538;2023-11-21T03:26:05;29.92;;;12.52;;
66175;SDS011;52977;44.816;20.538;2023-11-21T03:28:34;23.80;;;12.13;;
66175;SDS011;52977;44.816;20.538;2023-11-21T03:31:01;21.33;;;10.13;;
66175;SDS011;52977;44.816;20.538;2023-11-21T03:33:29;19.17;;;9.77;;
66175;SDS011;52977;44.816;20.538;2023-11-21T03:35:55;20.02;;;10.00;;
66175;SDS011;52977;44.816;20.538;2023-11-21T03:38:21;19.23;;;9.77;;
66175;SDS011;52977;44.816;20.538;2023-11-21T03:40:48;21.38;;;11.00;;
66175;SDS011;52977;44.816;20.538;2023-11-21T03:43:14;21.80;;;10.25;;
66175;SDS011;52977;44.816;20.538;2023-11-21T03:45:40;23.33;;;10.38;;
66175;SDS011;52977;44.816;20.538;2023-11-21T03:48:07;21.70;;;11.35;;
66175;SDS011;52977;44.816;20.538;2023-11-21T03:50:37;22.98;;;11.23;;
66175;SDS011;52977;44.816;20.538;2023-11-21T03:53:04;26.92;;;12.30;;
66175;SDS011;52977;44.816;20.538;2023-11-21T03:55:30;25.77;;;12.88;;
66175;SDS011;52977;44.816;20.538;2023-11-21T03:57:57;24.52;;;12.45;;
66175;SDS011;52977;44.816;20.538;2023-11-21T04:00:24;26.70;;;12.48;;
66175;SDS011;52977;44.816;20.538;2023-11-21T04:05:17;26.97;;;12.87;;
66175;SDS011;52977;44.816;20.538;2023-11-21T04:07:43;27.70;;;13.93;;
66175;SDS011;52977;44.816;20.538;2023-11-21T04:10:10;31.25;;;14.90;;
66175;SDS011;52977;44.816;20.538;2023-11-21T04:12:38;29.35;;;14.75;;
66175;SDS011;52977;44.816;20.538;2023-11-21T04:15:05;32.15;;;15.27;;
66175;SDS011;52977;44.816;20.538;2023-11-21T04:17:34;26.75;;;14.20;;
66175;SDS011;52977;44.816;20.538;2023-11-21T04:20:00;31.23;;;15.38;;
66175;SDS011;52977;44.816;20.538;2023-11-21T04:22:26;30.17;;;14.95;;
66175;SDS011;52977;44.816;20.538;2023-11-21T04:24:52;27.52;;;14.95;;
66175;SDS011;52977;44.816;20.538;2023-11-21T04:27:19;31.83;;;15.63;;
66175;SDS011;52977;44.816;20.538;2023-11-21T04:29:45;31.88;;;14.75;;
66175;SDS011;52977;44.816;20.538;2023-11-21T04:32:11;37.00;;;14.63;;
66175;SDS011;52977;44.816;20.538;2023-11-21T04:34:38;28.48;;;14.73;;
66175;SDS011;52977;44.816;20.538;2023-11-21T04:37:04;22.98;;;13.65;;
66175;SDS011;52977;44.816;20.538;2023-11-21T04:39:32;28.35;;;13.82;;
66175;SDS011;52977;44.816;20.538;2023-11-21T04:41:57;29.33;;;14.10;;
66175;SDS011;52977;44.816;20.538;2023-11-21T04:44:24;26.08;;;13.57;;
66175;SDS011;52977;44.816;20.538;2023-11-21T04:46:50;28.90;;;15.02;;
66175;SDS011;52977;44.816;20.538;2023-11-21T04:49:16;34.38;;;16.05;;
66175;SDS011;52977;44.816;20.538;2023-11-21T04:51:42;35.42;;;18.17;;
66175;SDS011;52977;44.816;20.538;2023-11-21T04:54:08;37.60;;;19.70;;
66175;SDS011;52977;44.816;20.538;2023-11-21T04:56:35;36.40;;;17.92;;
66175;SDS011;52977;44.816;20.538;2023-11-21T04:59:00;36.65;;;18.00;;
66175;SDS011;52977;44.816;20.538;2023-11-21T05:01:27;35.97;;;18.80;;
66175;SDS011;52977;44.816;20.538;2023-11-21T05:03:55;32.45;;;17.30;;
66175;SDS011;52977;44.816;20.538;2023-11-21T05:06:22;40.92;;;18.38;;
66175;SDS011;52977;44.816;20.538;2023-11-21T05:08:49;39.88;;;19.15;;
66175;SDS011;52977;44.816;20.538;2023-11-21T05:11:25;38.55;;;18.33;;
66175;SDS011;52977;44.816;20.538;2023-11-21T05:13:52;34.03;;;17.48;;
66175;SDS011;52977;44.816;20.538;2023-11-21T05:16:21;34.05;;;17.02;;
66175;SDS011;52977;44.816;20.538;2023-11-21T05:18:47;26.45;;;14.32;;
66175;SDS011;52977;44.816;20.538;2023-11-21T05:21:16;25.52;;;13.80;;
66175;SDS011;52977;44.816;20.538;2023-11-21T05:23:42;20.92;;;12.43;;
66175;SDS011;52977;44.816;20.538;2023-11-21T05:26:08;26.52;;;12.30;;
66175;SDS011;52977;44.816;20.538;2023-11-21T05:28:35;26.65;;;13.38;;
66175;SDS011;52977;44.816;20.538;2023-11-21T05:31:01;27.83;;;14.00;;
66175;SDS011;52977;44.816;20.538;2023-11-21T05:33:26;25.30;;;13.63;;
66175;SDS011;52977;44.816;20.538;2023-11-21T05:35:52;27.38;;;13.98;;
66175;SDS011;52977;44.816;20.538;2023-11-21T05:38:18;25.00;;;12.98;;
66175;SDS011;52977;44.816;20.538;2023-11-21T05:40:44;22.38;;;11.75;;
66175;SDS011;52977;44.816;20.538;2023-11-21T05:43:10;23.23;;;11.27;;
66175;SDS011;52977;44.816;20.538;2023-11-21T05:45:36;20.38;;;10.57;;
66175;SDS011;52977;44.816;20.538;2023-11-21T05:48:02;22.92;;;10.32;;
66175;SDS011;52977;44.816;20.538;2023-11-21T05:50:28;21.13;;;9.80;;
66175;SDS011;52977;44.816;20.538;2023-11-21T05:52:54;18.70;;;10.00;;
66175;SDS011;52977;44.816;20.538;2023-11-21T05:55:22;18.95;;;9.70;;
66175;SDS011;52977;44.816;20.538;2023-11-21T05:57:50;23.60;;;12.20;;
66175;SDS011;52977;44.816;20.538;2023-11-21T06:00:17;30.77;;;14.05;;
66175;SDS011;52977;44.816;20.538;2023-11-21T06:02:49;31.25;;;15.00;;
66175;SDS011;52977;44.816;20.538;2023-11-21T06:05:17;40.97;;;18.42;;
66175;SDS011;52977;44.816;20.538;2023-11-21T06:07:44;39.78;;;19.00;;
66175;SDS011;52977;44.816;20.538;2023-11-21T06:10:10;45.67;;;20.45;;
66175;SDS011;52977;44.816;20.538;2023-11-21T06:12:40;40.08;;;18.80;;
66175;SDS011;52977;44.816;20.538;2023-11-21T06:15:08;42.75;;;19.83;;
66175;SDS011;52977;44.816;20.538;2023-11-21T06:17:39;38.97;;;20.10;;
66175;SDS011;52977;44.816;20.538;2023-11-21T06:20:06;43.92;;;21.73;;
66175;SDS011;52977;44.816;20.538;2023-11-21T06:22:40;44.58;;;21.70;;
66175;SDS011;52977;44.816;20.538;2023-11-21T06:25:11;44.90;;;21.55;;
66175;SDS011;52977;44.816;20.538;2023-11-21T06:27:39;40.88;;;19.85;;
66175;SDS011;52977;44.816;20.538;2023-11-21T06:30:06;38.78;;;19.88;;
66175;SDS011;52977;44.816;20.538;2023-11-21T06:32:35;41.60;;;19.20;;
66175;SDS011;52977;44.816;20.538;2023-11-21T06:35:02;38.17;;;19.15;;
66175;SDS011;52977;44.816;20.538;2023-11-21T06:37:30;32.63;;;17.05;;
66175;SDS011;52977;44.816;20.538;2023-11-21T06:39:57;32.50;;;16.92;;
66175;SDS011;52977;44.816;20.538;2023-11-21T06:42:25;33.92;;;17.60;;
66175;SDS011;52977;44.816;20.538;2023-11-21T06:44:51;35.50;;;17.95;;
66175;SDS011;52977;44.816;20.538;2023-11-21T06:47:19;38.70;;;17.63;;
66175;SDS011;52977;44.816;20.538;2023-11-21T06:49:46;42.40;;;18.58;;
66175;SDS011;52977;44.816;20.538;2023-11-21T06:52:16;38.28;;;18.08;;
66175;SDS011;52977;44.816;20.538;2023-11-21T06:54:42;40.75;;;19.73;;
66175;SDS011;52977;44.816;20.538;2023-11-21T06:57:08;42.13;;;19.08;;
66175;SDS011;52977;44.816;20.538;2023-11-21T06:59:34;39.28;;;18.48;;
66175;SDS011;52977;44.816;20.538;2023-11-21T07:02:01;40.75;;;17.63;;
66175;SDS011;52977;44.816;20.538;2023-11-21T07:04:27;39.17;;;18.50;;
66175;SDS011;52977;44.816;20.538;2023-11-21T07:06:53;40.97;;;18.40;;
66175;SDS011;52977;44.816;20.538;2023-11-21T07:09:20;41.95;;;18.33;;
66175;SDS011;52977;44.816;20.538;2023-11-21T07:12:05;37.35;;;17.83;;
66175;SDS011;52977;44.816;20.538;2023-11-21T07:14:34;37.90;;;17.23;;
66175;SDS011;52977;44.816;20.538;2023-11-21T07:17:00;38.88;;;17.85;;
66175;SDS011;52977;44.816;20.538;2023-11-21T07:19:26;35.35;;;19.35;;
66175;SDS011;52977;44.816;20.538;2023-11-21T07:21:52;39.97;;;19.48;;
66175;SDS011;52977;44.816;20.538;2023-11-21T07:24:18;39.42;;;17.92;;
66175;SDS011;52977;44.816;20.538;2023-11-21T07:26:44;35.28;;;17.45;;
66175;SDS011;52977;44.816;20.538;2023-11-21T07:29:10;33.97;;;17.27;;
66175;SDS011;52977;44.816;20.538;2023-11-21T07:31:37;36.97;;;17.45;;
66175;SDS011;52977;44.816;20.538;2023-11-21T07:34:03;33.47;;;16.33;;
66175;SDS011;52977;44.816;20.538;2023-11-21T07:36:30;32.85;;;16.50;;
66175;SDS011;52977;44.816;20.538;2023-11-21T07:38:56;33.10;;;16.45;;
66175;SDS011;52977;44.816;20.538;2023-11-21T07:41:22;29.77;;;16.58;;
66175;SDS011;52977;44.816;20.538;2023-11-21T07:43:47;28.48;;;15.52;;
66175;SDS011;52977;44.816;20.538;2023-11-21T07:46:13;31.85;;;16.23;;
66175;SDS011;52977;44.816;20.538;2023-11-21T07:48:39;31.73;;;16.52;;
66175;SDS011;52977;44.816;20.538;2023-11-21T07:51:08;40.45;;;19.33;;
66175;SDS011;52977;44.816;20.538;2023-11-21T07:53:35;36.15;;;18.50;;
66175;SDS011;52977;44.816;20.538;2023-11-21T07:56:05;28.60;;;14.85;;
66175;SDS011;52977;44.816;20.538;2023-11-21T08:00:59;34.70;;;16.63;;
66175;SDS011;52977;44.816;20.538;2023-11-21T08:03:25;31.55;;;15.15;;
66175;SDS011;52977;44.816;20.538;2023-11-21T08:05:58;32.95;;;15.90;;
66175;SDS011;52977;44.816;20.538;2023-11-21T08:08:25;31.10;;;15.38;;
66175;SDS011;52977;44.816;20.538;2023-11-21T08:10:51;32.03;;;15.18;;
66175;SDS011;52977;44.816;20.538;2023-11-21T08:13:24;32.47;;;15.75;;
66175;SDS011;52977;44.816;20.538;2023-11-21T08:15:55;39.70;;;18.05;;
66175;SDS011;52977;44.816;20.538;2023-11-21T08:20:49;38.30;;;18.30;;
66175;SDS011;52977;44.816;20.538;2023-11-21T08:23:15;35.58;;;17.73;;
66175;SDS011;52977;44.816;20.538;2023-11-21T08:25:44;36.45;;;17.08;;
66175;SDS011;52977;44.816;20.538;2023-11-21T08:28:09;39.78;;;18.02;;
66175;SDS011;52977;44.816;20.538;2023-11-21T08:30:35;39.70;;;17.13;;
66175;SDS011;52977;44.816;20.538;2023-11-21T08:33:01;41.97;;;18.23;;
66175;SDS011;52977;44.816;20.538;2023-11-21T08:35:28;40.05;;;17.90;;
66175;SDS011;52977;44.816;20.538;2023-11-21T08:37:54;35.25;;;16.95;;
66175;SDS011;52977;44.816;20.538;2023-11-21T08:40:20;29.42;;;15.05;;
66175;SDS011;52977;44.816;20.538;2023-11-21T08:42:47;29.63;;;14.55;;
66175;SDS011;52977;44.816;20.538;2023-11-21T08:45:16;34.88;;;15.85;;
66175;SDS011;52977;44.816;20.538;2023-11-21T08:47:43;31.63;;;14.30;;
66175;SDS011;52977;44.816;20.538;2023-11-21T08:50:11;28.92;;;13.13;;
66175;SDS011;52977;44.816;20.538;2023-11-21T08:52:38;28.38;;;13.05;;
66175;SDS011;52977;44.816;20.538;2023-11-21T08:55:05;27.40;;;13.20;;
66175;SDS011;52977;44.816;20.538;2023-11-21T08:57:40;23.02;;;11.80;;
66175;SDS011;52977;44.816;20.538;2023-11-21T09:00:08;27.77;;;12.60;;
66175;SDS011;52977;44.816;20.538;2023-11-21T09:02:38;28.50;;;13.70;;
66175;SDS011;52977;44.816;20.538;2023-11-21T09:05:11;28.02;;;13.32;;
66175;SDS011;52977;44.816;20.538;2023-11-21T09:07:39;25.77;;;12.45;;
66175;SDS011;52977;44.816;20.538;2023-11-21T09:10:06;26.83;;;13.48;;
66175;SDS011;52977;44.816;20.538;2023-11-21T09:12:33;28.13;;;13.40;;
66175;SDS011;52977;44.816;20.538;2023-11-21T09:15:01;25.13;;;12.52;;
66175;SDS011;52977;44.816;20.538;2023-11-21T09:17:29;26.33;;;11.65;;
66175;SDS011;52977;44.816;20.538;2023-11-21T09:19:55;28.65;;;12.45;;
66175;SDS011;52977;44.816;20.538;2023-11-21T09:22:22;23.15;;;11.57;;
66175;SDS011;52977;44.816;20.538;2023-11-21T09:24:50;26.38;;;11.13;;
66175;SDS011;52977;44.816;20.538;2023-11-21T09:27:16;26.90;;;12.82;;
66175;SDS011;52977;44.816;20.538;2023-11-21T09:29:43;25.92;;;12.40;;
66175;SDS011;52977;44.816;20.538;2023-11-21T09:32:09;25.45;;;13.38;;
66175;SDS011;52977;44.816;20.538;2023-11-21T09:34:39;26.00;;;12.38;;
66175;SDS011;52977;44.816;20.538;2023-11-21T09:37:04;27.17;;;12.30;;
66175;SDS011;52977;44.816;20.538;2023-11-21T09:39:32;28.20;;;14.25;;
66175;SDS011;52977;44.816;20.538;2023-11-21T09:42:09;28.63;;;14.60;;
66175;SDS011;52977;44.816;20.538;2023-11-21T09:45:03;28.92;;;13.85;;
66175;SDS011;52977;44.816;20.538;2023-11-21T09:47:38;26.30;;;13.13;;
66175;SDS011;52977;44.816;20.538;2023-11-21T09:50:05;24.77;;;13.52;;
66175;SDS011;52977;44.816;20.538;2023-11-21T09:52:49;26.33;;;13.57;;
66175;SDS011;52977;44.816;20.538;2023-11-21T09:55:32;28.92;;;14.30;;
66175;SDS011;52977;44.816;20.538;2023-11-21T09:58:13;28.17;;;13.88;;
66175;SDS011;52977;44.816;20.538;2023-11-21T10:00:40;27.45;;;13.80;;
66175;SDS011;52977;44.816;20.538;2023-11-21T10:03:08;23.33;;;13.18;;
66175;SDS011;52977;44.816;20.538;2023-11-21T10:05:35;25.13;;;12.57;;
66175;SDS011;52977;44.816;20.538;2023-11-21T10:08:04;26.52;;;13.38;;
66175;SDS011;52977;44.816;20.538;2023-11-21T10:10:32;29.13;;;12.75;;
66175;SDS011;52977;44.816;20.538;2023-11-21T10:13:01;23.48;;;12.07;;
66175;SDS011;52977;44.816;20.538;2023-11-21T10:15:31;27.90;;;11.90;;
66175;SDS011;52977;44.816;20.538;2023-11-21T10:18:00;24.65;;;11.27;;
66175;SDS011;52977;44.816;20.538;2023-11-21T10:20:32;20.95;;;11.40;;
66175;SDS011;52977;44.816;20.538;2023-11-21T10:22:59;26.70;;;12.50;;
66175;SDS011;52977;44.816;20.538;2023-11-21T10:25:28;24.35;;;11.57;;
66175;SDS011;52977;44.816;20.538;2023-11-21T10:27:57;20.48;;;10.93;;
66175;SDS011;52977;44.816;20.538;2023-11-21T10:30:35;26.35;;;12.73;;
66175;SDS011;52977;44.816;20.538;2023-11-21T10:33:03;23.35;;;11.43;;
66175;SDS011;52977;44.816;20.538;2023-11-21T10:35:46;22.48;;;11.20;;
66175;SDS011;52977;44.816;20.538;2023-11-21T10:38:17;23.85;;;11.70;;
66175;SDS011;52977;44.816;20.538;2023-11-21T10:40:43;21.95;;;11.25;;
66175;SDS011;52977;44.816;20.538;2023-11-21T10:43:10;19.27;;;10.63;;
66175;SDS011;52977;44.816;20.538;2023-11-21T10:45:39;23.20;;;11.73;;
66175;SDS011;52977;44.816;20.538;2023-11-21T10:48:06;25.10;;;12.60;;
66175;SDS011;52977;44.816;20.538;2023-11-21T10:50:36;24.52;;;12.93;;
66175;SDS011;52977;44.816;20.538;2023-11-21T10:53:02;26.48;;;11.68;;
66175;SDS011;52977;44.816;20.538;2023-11-21T10:55:29;22.17;;;10.98;;
66175;SDS011;52977;44.816;20.538;2023-11-21T10:57:58;20.85;;;10.15;;
66175;SDS011;52977;44.816;20.538;2023-11-21T11:00:27;21.02;;;10.23;;
66175;SDS011;52977;44.816;20.538;2023-11-21T11:02:54;19.60;;;10.00;;
66175;SDS011;52977;44.816;20.538;2023-11-21T11:05:21;19.08;;;10.68;;
66175;SDS011;52977;44.816;20.538;2023-11-21T11:07:51;28.83;;;10.60;;
66175;SDS011;52977;44.816;20.538;2023-11-21T11:10:25;22.77;;;10.52;;
66175;SDS011;52977;44.816;20.538;2023-11-21T11:12:53;21.30;;;11.02;;
66175;SDS011;52977;44.816;20.538;2023-11-21T11:15:20;19.75;;;10.15;;
66175;SDS011;52977;44.816;20.538;2023-11-21T11:17:47;25.58;;;10.98;;
66175;SDS011;52977;44.816;20.538;2023-11-21T11:20:14;26.70;;;11.88;;
66175;SDS011;52977;44.816;20.538;2023-11-21T11:23:10;25.42;;;12.30;;
66175;SDS011;52977;44.816;20.538;2023-11-21T11:34:20;23.88;;;11.38;;
66175;SDS011;52977;44.816;20.538;2023-11-21T11:36:57;23.10;;;11.60;;
66175;SDS011;52977;44.816;20.538;2023-11-21T11:39:30;31.20;;;14.27;;
66175;SDS011;52977;44.816;20.538;2023-11-21T11:42:17;35.65;;;14.40;;
66175;SDS011;52977;44.816;20.538;2023-11-21T11:47:13;33.28;;;15.27;;
66175;SDS011;52977;44.816;20.538;2023-11-21T11:49:54;35.38;;;16.52;;
66175;SDS011;52977;44.816;20.538;2023-11-21T11:52:38;33.55;;;14.90;;
66175;SDS011;52977;44.816;20.538;2023-11-21T11:55:10;33.53;;;16.90;;
66175;SDS011;52977;44.816;20.538;2023-11-21T11:57:43;36.08;;;16.95;;
66175;SDS011;52977;44.816;20.538;2023-11-21T12:00:22;44.70;;;20.15;;
66175;SDS011;52977;44.816;20.538;2023-11-21T12:03:00;42.88;;;22.83;;
66175;SDS011;52977;44.816;20.538;2023-11-21T12:05:28;51.88;;;23.77;;
66175;SDS011;52977;44.816;20.538;2023-11-21T12:07:59;49.13;;;21.77;;
66175;SDS011;52977;44.816;20.538;2023-11-21T12:10:28;46.95;;;23.08;;
66175;SDS011;52977;44.816;20.538;2023-11-21T12:12:55;46.10;;;21.50;;
66175;SDS011;52977;44.816;20.538;2023-11-21T12:15:23;47.95;;;21.88;;
66175;SDS011;52977;44.816;20.538;2023-11-21T12:17:50;46.65;;;22.92;;
66175;SDS011;52977;44.816;20.538;2023-11-21T12:20:20;48.95;;;22.33;;
66175;SDS011;52977;44.816;20.538;2023-11-21T12:25:24;43.88;;;21.92;;
66175;SDS011;52977;44.816;20.538;2023-11-21T12:27:54;47.47;;;21.08;;
66175;SDS011;52977;44.816;20.538;2023-11-21T12:30:29;47.53;;;21.35;;
66175;SDS011;52977;44.816;20.538;2023-11-21T12:33:01;43.03;;;21.23;;
66175;SDS011;52977;44.816;20.538;2023-11-21T12:35:29;43.15;;;21.02;;
66175;SDS011;52977;44.816;20.538;2023-11-21T12:38:00;43.78;;;21.48;;
66175;SDS011;52977;44.816;20.538;2023-11-21T12:40:28;45.00;;;21.95;;
66175;SDS011;52977;44.816;20.538;2023-11-21T12:42:55;48.50;;;23.30;;
66175;SDS011;52977;44.816;20.538;2023-11-21T12:45:23;54.78;;;23.65;;
66175;SDS011;52977;44.816;20.538;2023-11-21T12:47:54;42.13;;;22.73;;
66175;SDS011;52977;44.816;20.538;2023-11-21T12:50:24;49.20;;;21.92;;
66175;SDS011;52977;44.816;20.538;2023-11-21T12:52:54;49.08;;;24.02;;
66175;SDS011;52977;44.816;20.538;2023-11-21T12:55:24;49.22;;;23.90;;
66175;SDS011;52977;44.816;20.538;2023-11-21T12:57:55;55.85;;;24.45;;
66175;SDS011;52977;44.816;20.538;2023-11-21T13:00:28;47.22;;;22.90;;
66175;SDS011;52977;44.816;20.538;2023-11-21T13:02:57;59.38;;;25.27;;
66175;SDS011;52977;44.816;20.538;2023-11-21T13:05:24;49.08;;;22.92;;
66175;SDS011;52977;44.816;20.538;2023-11-21T13:07:54;49.60;;;24.05;;
66175;SDS011;52977;44.816;20.538;2023-11-21T13:10:26;53.58;;;23.67;;
66175;SDS011;52977;44.816;20.538;2023-11-21T13:12:56;54.55;;;24.67;;
66175;SDS011;52977;44.816;20.538;2023-11-21T13:15:26;49.67;;;24.10;;
66175;SDS011;52977;44.816;20.538;2023-11-21T13:17:52;55.63;;;26.60;;
66175;SDS011;52977;44.816;20.538;2023-11-21T13:20:22;58.17;;;25.73;;
66175;SDS011;52977;44.816;20.538;2023-11-21T13:22:50;51.97;;;24.83;;
66175;SDS011;52977;44.816;20.538;2023-11-21T13:25:26;50.80;;;25.38;;
66175;SDS011;52977;44.816;20.538;2023-11-21T13:27:53;52.85;;;24.58;;
66175;SDS011;52977;44.816;20.538;2023-11-21T13:30:22;48.17;;;23.40;;
66175;SDS011;52977;44.816;20.538;2023-11-21T13:32:53;52.95;;;24.77;;
66175;SDS011;52977;44.816;20.538;2023-11-21T13:35:22;47.92;;;24.95;;
66175;SDS011;52977;44.816;20.538;2023-11-21T13:38:04;52.35;;;25.50;;
66175;SDS011;52977;44.816;20.538;2023-11-21T13:40:33;47.97;;;25.27;;
66175;SDS011;52977;44.816;20.538;2023-11-21T13:43:05;51.55;;;26.80;;
66175;SDS011;52977;44.816;20.538;2023-11-21T13:45:44;59.95;;;29.50;;
66175;SDS011;52977;44.816;20.538;2023-11-21T13:48:12;55.90;;;27.65;;
66175;SDS011;52977;44.816;20.538;2023-11-21T13:50:54;59.78;;;28.40;;
66175;SDS011;52977;44.816;20.538;2023-11-21T13:53:48;56.05;;;27.23;;
66175;SDS011;52977;44.816;20.538;2023-11-21T13:56:16;53.15;;;26.52;;
66175;SDS011;52977;44.816;20.538;2023-11-21T13:58:46;43.78;;;24.13;;
66175;SDS011;52977;44.816;20.538;2023-11-21T14:01:19;34.88;;;18.38;;
66175;SDS011;52977;44.816;20.538;2023-11-21T14:04:08;32.95;;;14.88;;
66175;SDS011;52977;44.816;20.538;2023-11-21T14:06:48;29.45;;;14.27;;
66175;SDS011;52977;44.816;20.538;2023-11-21T14:09:15;30.30;;;14.00;;
66175;SDS011;52977;44.816;20.538;2023-11-21T14:11:54;26.52;;;14.18;;
66175;SDS011;52977;44.816;20.538;2023-11-21T14:14:26;32.42;;;14.68;;
66175;SDS011;52977;44.816;20.538;2023-11-21T14:16:56;32.13;;;15.02;;
66175;SDS011;52977;44.816;20.538;2023-11-21T14:19:24;31.58;;;14.95;;
66175;SDS011;52977;44.816;20.538;2023-11-21T14:21:58;30.17;;;14.82;;
66175;SDS011;52977;44.816;20.538;2023-11-21T14:24:24;27.25;;;13.43;;
66175;SDS011;52977;44.816;20.538;2023-11-21T14:26:50;29.15;;;13.52;;
66175;SDS011;52977;44.816;20.538;2023-11-21T14:29:17;26.83;;;12.88;;
66175;SDS011;52977;44.816;20.538;2023-11-21T14:31:48;23.40;;;12.65;;
66175;SDS011;52977;44.816;20.538;2023-11-21T14:34:16;29.13;;;16.05;;
66175;SDS011;52977;44.816;20.538;2023-11-21T14:36:43;30.13;;;15.40;;
66175;SDS011;52977;44.816;20.538;2023-11-21T14:39:10;38.42;;;17.83;;
66175;SDS011;52977;44.816;20.538;2023-11-21T14:41:52;37.13;;;19.40;;